sensor_id;sensor_type;location;lat;lon;timestamp;P1;durP1;ratioP1;P2;durP2;ratioP2
8319;SDS011;4197;42.130;24.746;2022-10-23T00:01:19;36.23;;;22.83;;
8319;SDS011;4197;42.130;24.746;2022-10-23T00:03:51;32.70;;;21.90;;
8319;SDS011;4197;42.130;24.746;2022-10-23T00:06:20;31.23;;;22.33;;
8319;SDS011;4197;42.130;24.746;2022-10-23T00:08:48;35.67;;;23.17;;
8319;SDS011;4197;42.130;24.746;2022-10-23T00:11:17;30.67;;;21.30;;
8319;SDS011;4197;42.130;24.746;2022-10-23T00:13:48;32.90;;;20.50;;
8319;SDS011;4197;42.130;24.746;2022-10-23T00:16:17;33.07;;;20.93;;
8319;SDS011;4197;42.130;24.746;2022-10-23T00:18:45;31.43;;;22.40;;
8319;SDS011;4197;42.130;24.746;2022-10-23T00:21:15;33.13;;;20.70;;
8319;SDS011;4197;42.130;24.746;2022-10-23T00:23:44;32.60;;;21.77;;
8319;SDS011;4197;42.130;24.746;2022-10-23T00:26:13;30.50;;;21.40;;
8319;SDS011;4197;42.130;24.746;2022-10-23T00:28:41;29.53;;;21.33;;
8319;SDS011;4197;42.130;24.746;2022-10-23T00:31:11;29.23;;;19.83;;
8319;SDS011;4197;42.130;24.746;2022-10-23T00:33:39;31.00;;;21.37;;
8319;SDS011;4197;42.130;24.746;2022-10-23T00:36:09;29.97;;;20.93;;
8319;SDS011;4197;42.130;24.746;2022-10-23T00:38:41;31.83;;;20.63;;
8319;SDS011;4197;42.130;24.746;2022-10-23T00:41:12;31.27;;;21.40;;
8319;SDS011;4197;42.130;24.746;2022-10-23T00:43:54;31.07;;;20.80;;
8319;SDS011;4197;42.130;24.746;2022-10-23T00:46:27;29.67;;;20.13;;
8319;SDS011;4197;42.130;24.746;2022-10-23T00:48:56;31.67;;;20.70;;
8319;SDS011;4197;42.130;24.746;2022-10-23T00:51:26;29.67;;;21.67;;
8319;SDS011;4197;42.130;24.746;2022-10-23T00:53:58;27.13;;;18.77;;
8319;SDS011;4197;42.130;24.746;2022-10-23T00:56:48;26.97;;;19.77;;
8319;SDS011;4197;42.130;24.746;2022-10-23T00:59:18;30.03;;;21.00;;
8319;SDS011;4197;42.130;24.746;2022-10-23T01:01:46;28.40;;;20.47;;
8319;SDS011;4197;42.130;24.746;2022-10-23T01:04:15;31.67;;;20.53;;
8319;SDS011;4197;42.130;24.746;2022-10-23T01:06:44;30.63;;;19.97;;
8319;SDS011;4197;42.130;24.746;2022-10-23T01:09:22;32.07;;;20.83;;
8319;SDS011;4197;42.130;24.746;2022-10-23T01:11:56;31.33;;;20.60;;
8319;SDS011;4197;42.130;24.746;2022-10-23T01:14:31;28.23;;;19.83;;
8319;SDS011;4197;42.130;24.746;2022-10-23T01:17:07;30.77;;;21.07;;
8319;SDS011;4197;42.130;24.746;2022-10-23T01:19:43;34.13;;;21.70;;
8319;SDS011;4197;42.130;24.746;2022-10-23T01:22:22;35.20;;;21.00;;
8319;SDS011;4197;42.130;24.746;2022-10-23T01:25:07;34.83;;;21.50;;
8319;SDS011;4197;42.130;24.746;2022-10-23T01:27:49;31.80;;;20.80;;
8319;SDS011;4197;42.130;24.746;2022-10-23T01:30:22;31.67;;;21.23;;
8319;SDS011;4197;42.130;24.746;2022-10-23T01:32:51;32.80;;;20.63;;
8319;SDS011;4197;42.130;24.746;2022-10-23T01:35:23;31.07;;;21.13;;
8319;SDS011;4197;42.130;24.746;2022-10-23T01:38:00;30.60;;;20.03;;
8319;SDS011;4197;42.130;24.746;2022-10-23T01:40:33;28.53;;;21.10;;
8319;SDS011;4197;42.130;24.746;2022-10-23T01:43:07;31.83;;;21.07;;
8319;SDS011;4197;42.130;24.746;2022-10-23T01:45:39;33.13;;;20.63;;
8319;SDS011;4197;42.130;24.746;2022-10-23T01:48:11;31.83;;;20.77;;
8319;SDS011;4197;42.130;24.746;2022-10-23T01:50:43;31.63;;;20.27;;
8319;SDS011;4197;42.130;24.746;2022-10-23T01:53:13;25.70;;;17.93;;
8319;SDS011;4197;42.130;24.746;2022-10-23T01:55:41;26.87;;;19.47;;
8319;SDS011;4197;42.130;24.746;2022-10-23T01:58:12;29.17;;;18.97;;
8319;SDS011;4197;42.130;24.746;2022-10-23T02:00:43;25.03;;;17.67;;
8319;SDS011;4197;42.130;24.746;2022-10-23T02:03:13;25.67;;;19.77;;
8319;SDS011;4197;42.130;24.746;2022-10-23T02:05:44;23.77;;;18.73;;
8319;SDS011;4197;42.130;24.746;2022-10-23T02:08:12;23.17;;;17.97;;
8319;SDS011;4197;42.130;24.746;2022-10-23T02:10:42;27.30;;;18.53;;
8319;SDS011;4197;42.130;24.746;2022-10-23T02:13:18;26.33;;;18.23;;
8319;SDS011;4197;42.130;24.746;2022-10-23T02:15:54;28.33;;;19.20;;
8319;SDS011;4197;42.130;24.746;2022-10-23T02:18:32;28.57;;;18.33;;
8319;SDS011;4197;42.130;24.746;2022-10-23T02:21:08;26.87;;;18.17;;
8319;SDS011;4197;42.130;24.746;2022-10-23T02:23:39;33.90;;;18.90;;
8319;SDS011;4197;42.130;24.746;2022-10-23T02:26:13;26.27;;;18.53;;
8319;SDS011;4197;42.130;24.746;2022-10-23T02:28:47;27.33;;;18.87;;
8319;SDS011;4197;42.130;24.746;2022-10-23T02:31:19;28.13;;;19.17;;
8319;SDS011;4197;42.130;24.746;2022-10-23T02:33:49;26.20;;;19.03;;
8319;SDS011;4197;42.130;24.746;2022-10-23T02:36:18;27.07;;;17.70;;
8319;SDS011;4197;42.130;24.746;2022-10-23T02:38:46;25.83;;;18.07;;
8319;SDS011;4197;42.130;24.746;2022-10-23T02:41:16;30.27;;;19.00;;
8319;SDS011;4197;42.130;24.746;2022-10-23T02:43:59;26.07;;;18.53;;
8319;SDS011;4197;42.130;24.746;2022-10-23T02:46:36;31.57;;;19.20;;
8319;SDS011;4197;42.130;24.746;2022-10-23T02:49:17;29.17;;;20.13;;
8319;SDS011;4197;42.130;24.746;2022-10-23T02:51:53;22.87;;;17.40;;
8319;SDS011;4197;42.130;24.746;2022-10-23T02:54:30;28.37;;;17.53;;
8319;SDS011;4197;42.130;24.746;2022-10-23T02:57:11;26.77;;;18.13;;
8319;SDS011;4197;42.130;24.746;2022-10-23T02:59:50;25.90;;;18.60;;
8319;SDS011;4197;42.130;24.746;2022-10-23T03:02:28;28.77;;;18.40;;
8319;SDS011;4197;42.130;24.746;2022-10-23T03:05:03;27.17;;;16.60;;
8319;SDS011;4197;42.130;24.746;2022-10-23T03:07:35;22.13;;;16.13;;
8319;SDS011;4197;42.130;24.746;2022-10-23T03:10:06;25.07;;;17.43;;
8319;SDS011;4197;42.130;24.746;2022-10-23T03:12:35;25.03;;;17.00;;
8319;SDS011;4197;42.130;24.746;2022-10-23T03:15:06;23.60;;;16.13;;
8319;SDS011;4197;42.130;24.746;2022-10-23T03:17:35;23.17;;;15.13;;
8319;SDS011;4197;42.130;24.746;2022-10-23T03:20:03;24.17;;;15.30;;
8319;SDS011;4197;42.130;24.746;2022-10-23T03:22:31;21.27;;;14.73;;
8319;SDS011;4197;42.130;24.746;2022-10-23T03:24:59;20.77;;;14.43;;
8319;SDS011;4197;42.130;24.746;2022-10-23T03:27:27;19.73;;;14.20;;
8319;SDS011;4197;42.130;24.746;2022-10-23T03:29:55;19.70;;;13.70;;
8319;SDS011;4197;42.130;24.746;2022-10-23T03:32:25;21.47;;;13.63;;
8319;SDS011;4197;42.130;24.746;2022-10-23T03:34:53;20.20;;;13.70;;
8319;SDS011;4197;42.130;24.746;2022-10-23T03:37:21;20.50;;;13.17;;
8319;SDS011;4197;42.130;24.746;2022-10-23T03:39:49;19.07;;;13.33;;
8319;SDS011;4197;42.130;24.746;2022-10-23T03:42:18;24.17;;;12.73;;
8319;SDS011;4197;42.130;24.746;2022-10-23T03:44:46;18.57;;;11.40;;
8319;SDS011;4197;42.130;24.746;2022-10-23T03:47:14;20.17;;;11.27;;
8319;SDS011;4197;42.130;24.746;2022-10-23T03:49:44;21.80;;;10.33;;
8319;SDS011;4197;42.130;24.746;2022-10-23T03:52:12;20.57;;;11.57;;
8319;SDS011;4197;42.130;24.746;2022-10-23T03:54:40;15.30;;;11.23;;
8319;SDS011;4197;42.130;24.746;2022-10-23T03:57:08;18.23;;;11.17;;
8319;SDS011;4197;42.130;24.746;2022-10-23T03:59:36;20.47;;;12.23;;
8319;SDS011;4197;42.130;24.746;2022-10-23T04:02:04;15.77;;;11.83;;
8319;SDS011;4197;42.130;24.746;2022-10-23T04:04:33;15.17;;;11.33;;
8319;SDS011;4197;42.130;24.746;2022-10-23T04:07:02;18.47;;;12.40;;
8319;SDS011;4197;42.130;24.746;2022-10-23T04:09:30;19.23;;;11.77;;
8319;SDS011;4197;42.130;24.746;2022-10-23T04:11:59;16.87;;;11.00;;
8319;SDS011;4197;42.130;24.746;2022-10-23T04:14:27;17.83;;;11.03;;
8319;SDS011;4197;42.130;24.746;2022-10-23T04:16:56;15.97;;;10.87;;
8319;SDS011;4197;42.130;24.746;2022-10-23T04:19:24;14.67;;;11.30;;
8319;SDS011;4197;42.130;24.746;2022-10-23T04:21:52;18.97;;;11.23;;
8319;SDS011;4197;42.130;24.746;2022-10-23T04:24:24;19.70;;;11.27;;
8319;SDS011;4197;42.130;24.746;2022-10-23T04:26:52;23.10;;;11.70;;
8319;SDS011;4197;42.130;24.746;2022-10-23T04:29:21;16.83;;;10.83;;
8319;SDS011;4197;42.130;24.746;2022-10-23T04:31:50;16.70;;;11.03;;
8319;SDS011;4197;42.130;24.746;2022-10-23T04:34:18;19.17;;;10.27;;
8319;SDS011;4197;42.130;24.746;2022-10-23T04:36:46;16.23;;;10.87;;
8319;SDS011;4197;42.130;24.746;2022-10-23T04:39:14;14.80;;;11.03;;
8319;SDS011;4197;42.130;24.746;2022-10-23T04:41:43;17.33;;;10.50;;
8319;SDS011;4197;42.130;24.746;2022-10-23T04:44:11;15.20;;;9.97;;
8319;SDS011;4197;42.130;24.746;2022-10-23T04:46:40;13.97;;;8.67;;
8319;SDS011;4197;42.130;24.746;2022-10-23T04:49:08;19.87;;;8.27;;
8319;SDS011;4197;42.130;24.746;2022-10-23T04:51:36;13.83;;;8.60;;
8319;SDS011;4197;42.130;24.746;2022-10-23T04:54:04;21.17;;;7.30;;
8319;SDS011;4197;42.130;24.746;2022-10-23T04:56:32;11.53;;;7.67;;
8319;SDS011;4197;42.130;24.746;2022-10-23T04:59:02;17.73;;;6.73;;
8319;SDS011;4197;42.130;24.746;2022-10-23T05:01:35;14.43;;;6.60;;
8319;SDS011;4197;42.130;24.746;2022-10-23T05:04:04;13.93;;;7.17;;
8319;SDS011;4197;42.130;24.746;2022-10-23T05:06:32;12.97;;;6.67;;
8319;SDS011;4197;42.130;24.746;2022-10-23T05:09:00;14.37;;;7.50;;
8319;SDS011;4197;42.130;24.746;2022-10-23T05:11:29;15.23;;;7.20;;
8319;SDS011;4197;42.130;24.746;2022-10-23T05:13:57;9.30;;;6.20;;
8319;SDS011;4197;42.130;24.746;2022-10-23T05:16:30;15.47;;;6.67;;
8319;SDS011;4197;42.130;24.746;2022-10-23T05:19:02;13.13;;;6.20;;
8319;SDS011;4197;42.130;24.746;2022-10-23T05:21:33;10.03;;;6.17;;
8319;SDS011;4197;42.130;24.746;2022-10-23T05:24:02;13.57;;;8.43;;
8319;SDS011;4197;42.130;24.746;2022-10-23T05:26:31;13.33;;;6.67;;
8319;SDS011;4197;42.130;24.746;2022-10-23T05:28:59;12.93;;;6.80;;
8319;SDS011;4197;42.130;24.746;2022-10-23T05:31:28;12.50;;;6.93;;
8319;SDS011;4197;42.130;24.746;2022-10-23T05:33:58;17.23;;;6.20;;
8319;SDS011;4197;42.130;24.746;2022-10-23T05:36:27;10.37;;;6.50;;
8319;SDS011;4197;42.130;24.746;2022-10-23T05:38:55;17.70;;;6.67;;
8319;SDS011;4197;42.130;24.746;2022-10-23T05:41:24;14.77;;;5.70;;
8319;SDS011;4197;42.130;24.746;2022-10-23T05:43:52;13.10;;;5.83;;
8319;SDS011;4197;42.130;24.746;2022-10-23T05:46:20;10.73;;;5.73;;
8319;SDS011;4197;42.130;24.746;2022-10-23T05:48:50;16.07;;;5.80;;
8319;SDS011;4197;42.130;24.746;2022-10-23T05:51:19;11.63;;;5.20;;
8319;SDS011;4197;42.130;24.746;2022-10-23T05:53:48;19.00;;;5.70;;
8319;SDS011;4197;42.130;24.746;2022-10-23T05:56:18;13.88;;;6.03;;
8319;SDS011;4197;42.130;24.746;2022-10-23T05:58:46;13.73;;;5.20;;
8319;SDS011;4197;42.130;24.746;2022-10-23T06:01:14;10.95;;;5.28;;
8319;SDS011;4197;42.130;24.746;2022-10-23T06:03:44;10.82;;;5.32;;
8319;SDS011;4197;42.130;24.746;2022-10-23T06:06:13;9.15;;;5.15;;
8319;SDS011;4197;42.130;24.746;2022-10-23T06:08:42;12.38;;;4.80;;
8319;SDS011;4197;42.130;24.746;2022-10-23T06:11:11;12.93;;;5.45;;
8319;SDS011;4197;42.130;24.746;2022-10-23T06:13:41;15.35;;;5.80;;
8319;SDS011;4197;42.130;24.746;2022-10-23T06:16:10;16.80;;;5.15;;
8319;SDS011;4197;42.130;24.746;2022-10-23T06:18:39;17.92;;;5.63;;
8319;SDS011;4197;42.130;24.746;2022-10-23T06:21:08;12.77;;;5.28;;
8319;SDS011;4197;42.130;24.746;2022-10-23T06:23:39;10.52;;;5.45;;
8319;SDS011;4197;42.130;24.746;2022-10-23T06:26:08;13.45;;;5.25;;
8319;SDS011;4197;42.130;24.746;2022-10-23T06:28:39;10.77;;;5.00;;
8319;SDS011;4197;42.130;24.746;2022-10-23T06:31:09;13.07;;;5.43;;
8319;SDS011;4197;42.130;24.746;2022-10-23T06:33:38;13.55;;;5.80;;
8319;SDS011;4197;42.130;24.746;2022-10-23T06:36:08;8.48;;;4.47;;
8319;SDS011;4197;42.130;24.746;2022-10-23T06:38:36;10.23;;;4.82;;
8319;SDS011;4197;42.130;24.746;2022-10-23T06:41:13;13.35;;;6.22;;
8319;SDS011;4197;42.130;24.746;2022-10-23T06:43:43;18.58;;;5.05;;
8319;SDS011;4197;42.130;24.746;2022-10-23T06:46:14;10.73;;;5.45;;
8319;SDS011;4197;42.130;24.746;2022-10-23T06:48:43;13.65;;;5.20;;
8319;SDS011;4197;42.130;24.746;2022-10-23T06:51:12;17.83;;;6.13;;
8319;SDS011;4197;42.130;24.746;2022-10-23T06:53:43;9.95;;;5.57;;
8319;SDS011;4197;42.130;24.746;2022-10-23T06:56:12;10.93;;;5.88;;
8319;SDS011;4197;42.130;24.746;2022-10-23T06:58:40;9.88;;;5.80;;
8319;SDS011;4197;42.130;24.746;2022-10-23T07:01:10;11.10;;;5.50;;
8319;SDS011;4197;42.130;24.746;2022-10-23T07:03:39;12.82;;;5.72;;
8319;SDS011;4197;42.130;24.746;2022-10-23T07:06:08;11.57;;;6.47;;
8319;SDS011;4197;42.130;24.746;2022-10-23T07:08:37;10.98;;;5.35;;
8319;SDS011;4197;42.130;24.746;2022-10-23T07:11:08;11.75;;;5.78;;
8319;SDS011;4197;42.130;24.746;2022-10-23T07:13:37;10.88;;;6.00;;
8319;SDS011;4197;42.130;24.746;2022-10-23T07:16:10;22.80;;;6.38;;
8319;SDS011;4197;42.130;24.746;2022-10-23T07:18:39;10.55;;;5.70;;
8319;SDS011;4197;42.130;24.746;2022-10-23T07:21:07;13.23;;;6.40;;
8319;SDS011;4197;42.130;24.746;2022-10-23T07:23:36;16.65;;;6.50;;
8319;SDS011;4197;42.130;24.746;2022-10-23T07:26:05;16.90;;;5.97;;
8319;SDS011;4197;42.130;24.746;2022-10-23T07:28:35;13.98;;;6.45;;
8319;SDS011;4197;42.130;24.746;2022-10-23T07:31:04;15.77;;;6.20;;
8319;SDS011;4197;42.130;24.746;2022-10-23T07:33:32;15.38;;;6.03;;
8319;SDS011;4197;42.130;24.746;2022-10-23T07:36:02;25.05;;;7.07;;
8319;SDS011;4197;42.130;24.746;2022-10-23T07:38:31;16.42;;;6.68;;
8319;SDS011;4197;42.130;24.746;2022-10-23T07:40:59;20.83;;;6.32;;
8319;SDS011;4197;42.130;24.746;2022-10-23T07:43:30;16.88;;;6.30;;
8319;SDS011;4197;42.130;24.746;2022-10-23T07:45:59;21.27;;;7.28;;
8319;SDS011;4197;42.130;24.746;2022-10-23T07:48:27;20.27;;;6.88;;
8319;SDS011;4197;42.130;24.746;2022-10-23T07:50:57;14.07;;;5.65;;
8319;SDS011;4197;42.130;24.746;2022-10-23T07:53:27;19.63;;;6.10;;
8319;SDS011;4197;42.130;24.746;2022-10-23T07:55:56;13.32;;;6.13;;
8319;SDS011;4197;42.130;24.746;2022-10-23T07:58:26;11.45;;;5.18;;
8319;SDS011;4197;42.130;24.746;2022-10-23T08:00:57;24.63;;;6.45;;
8319;SDS011;4197;42.130;24.746;2022-10-23T08:03:28;18.17;;;5.63;;
8319;SDS011;4197;42.130;24.746;2022-10-23T08:05:58;15.98;;;5.90;;
8319;SDS011;4197;42.130;24.746;2022-10-23T08:08:26;22.73;;;5.38;;
8319;SDS011;4197;42.130;24.746;2022-10-23T08:10:54;29.02;;;6.63;;
8319;SDS011;4197;42.130;24.746;2022-10-23T08:13:22;21.25;;;5.72;;
8319;SDS011;4197;42.130;24.746;2022-10-23T08:15:50;14.48;;;5.13;;
8319;SDS011;4197;42.130;24.746;2022-10-23T08:18:21;13.57;;;5.13;;
8319;SDS011;4197;42.130;24.746;2022-10-23T08:20:49;13.65;;;4.65;;
8319;SDS011;4197;42.130;24.746;2022-10-23T08:23:18;19.30;;;5.63;;
8319;SDS011;4197;42.130;24.746;2022-10-23T08:25:46;15.27;;;5.90;;
8319;SDS011;4197;42.130;24.746;2022-10-23T08:28:15;17.00;;;5.40;;
8319;SDS011;4197;42.130;24.746;2022-10-23T08:30:43;24.08;;;4.28;;
8319;SDS011;4197;42.130;24.746;2022-10-23T08:33:11;29.38;;;4.90;;
8319;SDS011;4197;42.130;24.746;2022-10-23T08:35:41;18.60;;;3.70;;
8319;SDS011;4197;42.130;24.746;2022-10-23T08:38:09;23.27;;;4.65;;
8319;SDS011;4197;42.130;24.746;2022-10-23T08:40:37;24.92;;;4.75;;
8319;SDS011;4197;42.130;24.746;2022-10-23T08:43:11;20.38;;;3.90;;
8319;SDS011;4197;42.130;24.746;2022-10-23T08:45:45;22.42;;;4.00;;
8319;SDS011;4197;42.130;24.746;2022-10-23T08:48:17;9.88;;;3.28;;
8319;SDS011;4197;42.130;24.746;2022-10-23T08:50:54;13.25;;;3.88;;
8319;SDS011;4197;42.130;24.746;2022-10-23T08:53:25;9.98;;;3.20;;
8319;SDS011;4197;42.130;24.746;2022-10-23T08:56:00;7.50;;;3.53;;
8319;SDS011;4197;42.130;24.746;2022-10-23T08:58:34;15.00;;;3.83;;
8319;SDS011;4197;42.130;24.746;2022-10-23T09:01:15;8.88;;;3.08;;
8319;SDS011;4197;42.130;24.746;2022-10-23T09:03:54;9.80;;;3.55;;
8319;SDS011;4197;42.130;24.746;2022-10-23T09:06:28;7.57;;;2.40;;
8319;SDS011;4197;42.130;24.746;2022-10-23T09:09:05;7.85;;;2.35;;
8319;SDS011;4197;42.130;24.746;2022-10-23T09:11:48;12.00;;;2.78;;
8319;SDS011;4197;42.130;24.746;2022-10-23T09:14:33;26.40;;;4.13;;
8319;SDS011;4197;42.130;24.746;2022-10-23T09:17:15;9.70;;;3.13;;
8319;SDS011;4197;42.130;24.746;2022-10-23T09:19:52;17.02;;;2.80;;
8319;SDS011;4197;42.130;24.746;2022-10-23T09:22:27;6.90;;;1.90;;
8319;SDS011;4197;42.130;24.746;2022-10-23T09:24:56;15.43;;;2.58;;
8319;SDS011;4197;42.130;24.746;2022-10-23T09:27:24;22.35;;;2.78;;
8319;SDS011;4197;42.130;24.746;2022-10-23T09:29:52;11.57;;;2.15;;
8319;SDS011;4197;42.130;24.746;2022-10-23T09:32:31;4.82;;;1.80;;
8319;SDS011;4197;42.130;24.746;2022-10-23T09:35:03;3.03;;;1.95;;
8319;SDS011;4197;42.130;24.746;2022-10-23T09:37:34;5.93;;;1.90;;
8319;SDS011;4197;42.130;24.746;2022-10-23T09:40:14;4.28;;;1.88;;
8319;SDS011;4197;42.130;24.746;2022-10-23T09:42:52;7.47;;;2.15;;
8319;SDS011;4197;42.130;24.746;2022-10-23T09:45:23;10.70;;;1.90;;
8319;SDS011;4197;42.130;24.746;2022-10-23T09:48:07;6.88;;;1.83;;
8319;SDS011;4197;42.130;24.746;2022-10-23T09:50:46;9.10;;;2.67;;
8319;SDS011;4197;42.130;24.746;2022-10-23T09:53:18;5.60;;;2.50;;
8319;SDS011;4197;42.130;24.746;2022-10-23T09:55:51;3.58;;;1.77;;
8319;SDS011;4197;42.130;24.746;2022-10-23T09:58:24;10.15;;;2.70;;
8319;SDS011;4197;42.130;24.746;2022-10-23T10:00:57;7.63;;;2.92;;
8319;SDS011;4197;42.130;24.746;2022-10-23T10:03:25;4.80;;;2.15;;
8319;SDS011;4197;42.130;24.746;2022-10-23T10:05:55;6.68;;;2.15;;
8319;SDS011;4197;42.130;24.746;2022-10-23T10:08:34;5.22;;;2.08;;
8319;SDS011;4197;42.130;24.746;2022-10-23T10:11:09;3.53;;;2.47;;
8319;SDS011;4197;42.130;24.746;2022-10-23T10:13:51;3.17;;;2.33;;
8319;SDS011;4197;42.130;24.746;2022-10-23T10:16:34;4.05;;;2.25;;
8319;SDS011;4197;42.130;24.746;2022-10-23T10:19:12;4.05;;;2.25;;
8319;SDS011;4197;42.130;24.746;2022-10-23T10:22:00;5.25;;;2.47;;
8319;SDS011;4197;42.130;24.746;2022-10-23T10:24:38;3.92;;;2.00;;
8319;SDS011;4197;42.130;24.746;2022-10-23T10:27:17;3.90;;;2.08;;
8319;SDS011;4197;42.130;24.746;2022-10-23T10:29:56;4.50;;;2.60;;
8319;SDS011;4197;42.130;24.746;2022-10-23T10:32:33;3.83;;;2.47;;
8319;SDS011;4197;42.130;24.746;2022-10-23T10:35:16;4.72;;;2.22;;
8319;SDS011;4197;42.130;24.746;2022-10-23T10:37:57;5.03;;;2.42;;
8319;SDS011;4197;42.130;24.746;2022-10-23T10:40:44;6.03;;;1.98;;
8319;SDS011;4197;42.130;24.746;2022-10-23T10:43:22;3.75;;;1.95;;
8319;SDS011;4197;42.130;24.746;2022-10-23T10:46:02;7.70;;;2.20;;
8319;SDS011;4197;42.130;24.746;2022-10-23T10:48:41;4.22;;;1.90;;
8319;SDS011;4197;42.130;24.746;2022-10-23T10:51:17;3.70;;;1.95;;
8319;SDS011;4197;42.130;24.746;2022-10-23T10:54:08;3.25;;;2.00;;
8319;SDS011;4197;42.130;24.746;2022-10-23T10:56:49;4.97;;;2.15;;
8319;SDS011;4197;42.130;24.746;2022-10-23T10:59:19;4.05;;;1.88;;
8319;SDS011;4197;42.130;24.746;2022-10-23T11:01:52;3.25;;;1.40;;
8319;SDS011;4197;42.130;24.746;2022-10-23T11:04:27;3.42;;;1.77;;
8319;SDS011;4197;42.130;24.746;2022-10-23T11:07:04;2.50;;;1.80;;
8319;SDS011;4197;42.130;24.746;2022-10-23T11:09:36;6.28;;;1.67;;
8319;SDS011;4197;42.130;24.746;2022-10-23T11:12:11;4.40;;;2.08;;
8319;SDS011;4197;42.130;24.746;2022-10-23T11:14:44;4.07;;;1.67;;
8319;SDS011;4197;42.130;24.746;2022-10-23T11:17:14;6.60;;;2.03;;
8319;SDS011;4197;42.130;24.746;2022-10-23T11:19:52;4.30;;;2.15;;
8319;SDS011;4197;42.130;24.746;2022-10-23T11:22:30;3.22;;;1.77;;
8319;SDS011;4197;42.130;24.746;2022-10-23T11:25:11;3.10;;;1.80;;
8319;SDS011;4197;42.130;24.746;2022-10-23T11:28:02;4.65;;;1.80;;
8319;SDS011;4197;42.130;24.746;2022-10-23T11:30:42;3.58;;;1.90;;
8319;SDS011;4197;42.130;24.746;2022-10-23T11:33:35;4.57;;;1.90;;
8319;SDS011;4197;42.130;24.746;2022-10-23T11:36:31;2.42;;;1.88;;
8319;SDS011;4197;42.130;24.746;2022-10-23T11:39:21;3.38;;;1.40;;
8319;SDS011;4197;42.130;24.746;2022-10-23T11:41:53;8.35;;;2.13;;
8319;SDS011;4197;42.130;24.746;2022-10-23T11:44:25;2.65;;;1.70;;
8319;SDS011;4197;42.130;24.746;2022-10-23T11:47:24;5.50;;;1.98;;
8319;SDS011;4197;42.130;24.746;2022-10-23T11:50:22;3.35;;;1.98;;
8319;SDS011;4197;42.130;24.746;2022-10-23T11:52:54;4.82;;;2.05;;
8319;SDS011;4197;42.130;24.746;2022-10-23T11:55:54;5.32;;;2.17;;
8319;SDS011;4197;42.130;24.746;2022-10-23T11:58:25;4.70;;;2.10;;
8319;SDS011;4197;42.130;24.746;2022-10-23T12:01:16;3.58;;;1.85;;
8319;SDS011;4197;42.130;24.746;2022-10-23T12:03:52;8.52;;;1.92;;
8319;SDS011;4197;42.130;24.746;2022-10-23T12:06:25;5.10;;;2.03;;
8319;SDS011;4197;42.130;24.746;2022-10-23T12:08:56;3.67;;;1.65;;
8319;SDS011;4197;42.130;24.746;2022-10-23T12:11:38;5.95;;;2.00;;
8319;SDS011;4197;42.130;24.746;2022-10-23T12:14:24;4.28;;;1.67;;
8319;SDS011;4197;42.130;24.746;2022-10-23T12:16:56;3.53;;;1.80;;
8319;SDS011;4197;42.130;24.746;2022-10-23T12:19:25;4.78;;;1.92;;
8319;SDS011;4197;42.130;24.746;2022-10-23T12:21:56;3.55;;;1.92;;
8319;SDS011;4197;42.130;24.746;2022-10-23T12:27:29;2.70;;;2.00;;
8319;SDS011;4197;42.130;24.746;2022-10-23T12:30:08;4.65;;;2.03;;
8319;SDS011;4197;42.130;24.746;2022-10-23T12:35:55;4.82;;;1.85;;
8319;SDS011;4197;42.130;24.746;2022-10-23T12:38:41;2.97;;;2.08;;
8319;SDS011;4197;42.130;24.746;2022-10-23T12:41:14;2.97;;;2.05;;
8319;SDS011;4197;42.130;24.746;2022-10-23T12:43:44;4.38;;;2.25;;
8319;SDS011;4197;42.130;24.746;2022-10-23T12:46:32;6.28;;;2.22;;
8319;SDS011;4197;42.130;24.746;2022-10-23T12:49:10;2.72;;;2.00;;
8319;SDS011;4197;42.130;24.746;2022-10-23T12:51:40;7.13;;;2.30;;
8319;SDS011;4197;42.130;24.746;2022-10-23T12:54:13;4.22;;;2.10;;
8319;SDS011;4197;42.130;24.746;2022-10-23T12:56:43;5.25;;;1.63;;
8319;SDS011;4197;42.130;24.746;2022-10-23T12:59:13;6.07;;;1.95;;
8319;SDS011;4197;42.130;24.746;2022-10-23T13:01:44;2.90;;;1.70;;
8319;SDS011;4197;42.130;24.746;2022-10-23T13:04:22;4.13;;;1.90;;
8319;SDS011;4197;42.130;24.746;2022-10-23T13:06:55;3.65;;;1.90;;
8319;SDS011;4197;42.130;24.746;2022-10-23T13:09:27;3.45;;;1.65;;
8319;SDS011;4197;42.130;24.746;2022-10-23T13:11:57;4.35;;;2.55;;
8319;SDS011;4197;42.130;24.746;2022-10-23T13:14:32;2.20;;;1.90;;
8319;SDS011;4197;42.130;24.746;2022-10-23T13:17:08;6.70;;;2.47;;
8319;SDS011;4197;42.130;24.746;2022-10-23T13:19:39;2.42;;;1.95;;
8319;SDS011;4197;42.130;24.746;2022-10-23T13:22:13;2.05;;;1.77;;
8319;SDS011;4197;42.130;24.746;2022-10-23T13:24:46;1.90;;;1.65;;
8319;SDS011;4197;42.130;24.746;2022-10-23T13:27:24;8.32;;;2.58;;
8319;SDS011;4197;42.130;24.746;2022-10-23T13:29:59;3.35;;;1.98;;
8319;SDS011;4197;42.130;24.746;2022-10-23T13:32:31;4.88;;;2.10;;
8319;SDS011;4197;42.130;24.746;2022-10-23T13:35:00;2.75;;;1.90;;
8319;SDS011;4197;42.130;24.746;2022-10-23T13:37:46;5.25;;;2.17;;
8319;SDS011;4197;42.130;24.746;2022-10-23T13:40:19;5.00;;;1.95;;
8319;SDS011;4197;42.130;24.746;2022-10-23T13:42:50;5.85;;;2.15;;
8319;SDS011;4197;42.130;24.746;2022-10-23T13:45:21;3.33;;;2.20;;
8319;SDS011;4197;42.130;24.746;2022-10-23T13:47:50;3.60;;;1.60;;
8319;SDS011;4197;42.130;24.746;2022-10-23T13:50:20;3.00;;;1.70;;
8319;SDS011;4197;42.130;24.746;2022-10-23T13:52:49;6.38;;;2.30;;
8319;SDS011;4197;42.130;24.746;2022-10-23T13:55:19;5.03;;;2.00;;
8319;SDS011;4197;42.130;24.746;2022-10-23T13:57:50;4.93;;;1.88;;
8319;SDS011;4197;42.130;24.746;2022-10-23T14:00:18;5.65;;;2.03;;
8319;SDS011;4197;42.130;24.746;2022-10-23T14:02:46;4.85;;;1.83;;
8319;SDS011;4197;42.130;24.746;2022-10-23T14:05:14;2.60;;;2.05;;
8319;SDS011;4197;42.130;24.746;2022-10-23T14:07:44;3.40;;;1.80;;
8319;SDS011;4197;42.130;24.746;2022-10-23T14:10:13;7.20;;;2.40;;
8319;SDS011;4197;42.130;24.746;2022-10-23T14:12:41;2.35;;;1.70;;
8319;SDS011;4197;42.130;24.746;2022-10-23T14:15:10;2.50;;;1.52;;
8319;SDS011;4197;42.130;24.746;2022-10-23T14:17:38;5.35;;;2.00;;
8319;SDS011;4197;42.130;24.746;2022-10-23T14:20:07;7.25;;;2.08;;
8319;SDS011;4197;42.130;24.746;2022-10-23T14:22:37;4.50;;;2.20;;
8319;SDS011;4197;42.130;24.746;2022-10-23T14:25:07;3.85;;;1.85;;
8319;SDS011;4197;42.130;24.746;2022-10-23T14:27:35;3.58;;;1.70;;
8319;SDS011;4197;42.130;24.746;2022-10-23T14:30:03;3.13;;;1.77;;
8319;SDS011;4197;42.130;24.746;2022-10-23T14:32:32;6.78;;;2.00;;
8319;SDS011;4197;42.130;24.746;2022-10-23T14:35:00;3.72;;;1.92;;
8319;SDS011;4197;42.130;24.746;2022-10-23T14:37:29;5.03;;;1.88;;
8319;SDS011;4197;42.130;24.746;2022-10-23T14:39:57;3.95;;;2.00;;
8319;SDS011;4197;42.130;24.746;2022-10-23T14:42:27;3.35;;;2.13;;
8319;SDS011;4197;42.130;24.746;2022-10-23T14:44:59;3.72;;;2.22;;
8319;SDS011;4197;42.130;24.746;2022-10-23T14:47:28;2.95;;;1.77;;
8319;SDS011;4197;42.130;24.746;2022-10-23T14:49:56;5.95;;;2.45;;
8319;SDS011;4197;42.130;24.746;2022-10-23T14:52:24;4.43;;;1.83;;
8319;SDS011;4197;42.130;24.746;2022-10-23T14:54:52;4.15;;;2.15;;
8319;SDS011;4197;42.130;24.746;2022-10-23T14:57:21;3.13;;;1.77;;
8319;SDS011;4197;42.130;24.746;2022-10-23T14:59:50;3.72;;;1.98;;
8319;SDS011;4197;42.130;24.746;2022-10-23T15:02:19;3.28;;;2.22;;
8319;SDS011;4197;42.130;24.746;2022-10-23T15:04:47;3.83;;;2.30;;
8319;SDS011;4197;42.130;24.746;2022-10-23T15:07:15;6.20;;;2.50;;
8319;SDS011;4197;42.130;24.746;2022-10-23T15:09:43;2.38;;;1.80;;
8319;SDS011;4197;42.130;24.746;2022-10-23T15:12:11;3.20;;;2.03;;
8319;SDS011;4197;42.130;24.746;2022-10-23T15:14:39;3.67;;;2.30;;
8319;SDS011;4197;42.130;24.746;2022-10-23T15:17:09;6.45;;;2.22;;
8319;SDS011;4197;42.130;24.746;2022-10-23T15:19:41;3.80;;;1.95;;
8319;SDS011;4197;42.130;24.746;2022-10-23T15:22:09;3.75;;;2.50;;
8319;SDS011;4197;42.130;24.746;2022-10-23T15:24:37;3.67;;;2.38;;